sensor_id;sensor_type;location;lat;lon;timestamp;pressure;altitude;pressure_sealevel;temperature;humidity
77011;BME280;65945;53.148;17.956;2023-03-31T00:00:26;99971.77;;;9.01;84.98
77011;BME280;65945;53.148;17.956;2023-03-31T00:03:10;99971.27;;;8.99;85.02
77011;BME280;65945;53.148;17.956;2023-03-31T00:05:37;99962.67;;;8.95;85.32
77011;BME280;65945;53.148;17.956;2023-03-31T00:08:03;99959.65;;;8.93;85.33
77011;BME280;65945;53.148;17.956;2023-03-31T00:10:32;99964.35;;;8.91;85.20
77011;BME280;65945;53.148;17.956;2023-03-31T00:13:00;99967.36;;;8.90;85.34
77011;BME280;65945;53.148;17.956;2023-03-31T00:15:28;99964.61;;;8.88;85.76
77011;BME280;65945;53.148;17.956;2023-03-31T00:17:55;99956.23;;;8.89;85.52
77011;BME280;65945;53.148;17.956;2023-03-31T00:20:25;99947.24;;;8.89;85.32
77011;BME280;65945;53.148;17.956;2023-03-31T00:22:52;99951.23;;;8.91;85.50
77011;BME280;65945;53.148;17.956;2023-03-31T00:25:20;99951.39;;;8.91;85.60
77011;BME280;65945;53.148;17.956;2023-03-31T00:27:46;99946.38;;;8.92;85.69
77011;BME280;65945;53.148;17.956;2023-03-31T00:30:15;99952.05;;;8.94;85.85
77011;BME280;65945;53.148;17.956;2023-03-31T00:32:42;99954.95;;;8.94;85.83
77011;BME280;65945;53.148;17.956;2023-03-31T00:35:09;99955.50;;;8.96;85.49
77011;BME280;65945;53.148;17.956;2023-03-31T00:37:35;99951.88;;;8.98;85.83
77011;BME280;65945;53.148;17.956;2023-03-31T00:40:03;99947.71;;;8.99;85.68
77011;BME280;65945;53.148;17.956;2023-03-31T00:42:39;99942.33;;;9.00;85.51
77011;BME280;65945;53.148;17.956;2023-03-31T00:47:45;99932.09;;;9.04;85.73
77011;BME280;65945;53.148;17.956;2023-03-31T00:50:27;99930.14;;;9.06;85.78
77011;BME280;65945;53.148;17.956;2023-03-31T00:52:59;99932.02;;;9.09;85.63
77011;BME280;65945;53.148;17.956;2023-03-31T00:55:36;99930.98;;;9.11;85.55
77011;BME280;65945;53.148;17.956;2023-03-31T00:58:05;99921.56;;;9.13;85.34
77011;BME280;65945;53.148;17.956;2023-03-31T01:00:33;99918.09;;;9.15;85.32
77011;BME280;65945;53.148;17.956;2023-03-31T01:03:02;99917.04;;;9.16;85.30
77011;BME280;65945;53.148;17.956;2023-03-31T01:05:45;99911.95;;;9.17;85.12
77011;BME280;65945;53.148;17.956;2023-03-31T01:08:13;99908.77;;;9.18;85.03
77011;BME280;65945;53.148;17.956;2023-03-31T01:10:44;99904.95;;;9.18;85.07
77011;BME280;65945;53.148;17.956;2023-03-31T01:13:14;99907.46;;;9.18;84.99
77011;BME280;65945;53.148;17.956;2023-03-31T01:15:42;99910.56;;;9.17;85.01
77011;BME280;65945;53.148;17.956;2023-03-31T01:18:11;99908.27;;;9.16;85.03
77011;BME280;65945;53.148;17.956;2023-03-31T01:28:56;99888.27;;;9.14;84.90
77011;BME280;65945;53.148;17.956;2023-03-31T01:42:40;99889.60;;;9.02;84.90
77011;BME280;65945;53.148;17.956;2023-03-31T01:45:15;99890.06;;;8.97;84.86
77011;BME280;65945;53.148;17.956;2023-03-31T01:47:56;99885.86;;;8.92;84.87
77011;BME280;65945;53.148;17.956;2023-03-31T01:50:31;99886.48;;;8.87;84.94
77011;BME280;65945;53.148;17.956;2023-03-31T01:53:06;99885.09;;;8.82;84.92
77011;BME280;65945;53.148;17.956;2023-03-31T01:55:44;99883.92;;;8.76;84.90
77011;BME280;65945;53.148;17.956;2023-03-31T01:58:22;99876.05;;;8.69;84.79
77011;BME280;65945;53.148;17.956;2023-03-31T02:00:59;99880.86;;;8.62;84.75
77011;BME280;65945;53.148;17.956;2023-03-31T02:03:32;99881.94;;;8.53;84.79
77011;BME280;65945;53.148;17.956;2023-03-31T02:06:10;99888.76;;;8.46;84.77
77011;BME280;65945;53.148;17.956;2023-03-31T02:08:42;99888.61;;;8.39;84.74
77011;BME280;65945;53.148;17.956;2023-03-31T02:11:11;99883.14;;;8.31;84.75
77011;BME280;65945;53.148;17.956;2023-03-31T02:13:39;99875.45;;;8.23;84.85
77011;BME280;65945;53.148;17.956;2023-03-31T02:16:10;99872.95;;;8.17;84.88
77011;BME280;65945;53.148;17.956;2023-03-31T02:18:39;99871.60;;;8.09;84.83
77011;BME280;65945;53.148;17.956;2023-03-31T02:21:10;99875.58;;;8.02;84.85
77011;BME280;65945;53.148;17.956;2023-03-31T02:23:39;99874.66;;;7.95;84.76
77011;BME280;65945;53.148;17.956;2023-03-31T02:26:11;99877.49;;;7.88;84.86
77011;BME280;65945;53.148;17.956;2023-03-31T02:28:39;99878.65;;;7.81;85.09
77011;BME280;65945;53.148;17.956;2023-03-31T02:31:40;99878.30;;;7.75;85.01
77011;BME280;65945;53.148;17.956;2023-03-31T02:34:09;99874.83;;;7.68;85.08
77011;BME280;65945;53.148;17.956;2023-03-31T02:36:36;99873.66;;;7.64;85.20
77011;BME280;65945;53.148;17.956;2023-03-31T02:39:08;99873.59;;;7.61;85.32
77011;BME280;65945;53.148;17.956;2023-03-31T02:41:37;99871.85;;;7.58;85.36
77011;BME280;65945;53.148;17.956;2023-03-31T02:44:03;99877.41;;;7.54;85.28
77011;BME280;65945;53.148;17.956;2023-03-31T02:46:30;99879.24;;;7.51;85.37
77011;BME280;65945;53.148;17.956;2023-03-31T02:49:02;99880.92;;;7.48;85.33
77011;BME280;65945;53.148;17.956;2023-03-31T03:00:14;99867.88;;;7.36;85.47
77011;BME280;65945;53.148;17.956;2023-03-31T03:05:47;99856.64;;;7.29;85.58
77011;BME280;65945;53.148;17.956;2023-03-31T03:09:03;99857.55;;;7.26;85.41
77011;BME280;65945;53.148;17.956;2023-03-31T03:12:02;99855.80;;;7.22;85.42
77011;BME280;65945;53.148;17.956;2023-03-31T03:15:02;99853.14;;;7.19;85.34
77011;BME280;65945;53.148;17.956;2023-03-31T03:17:43;99850.88;;;7.16;85.44
77011;BME280;65945;53.148;17.956;2023-03-31T03:20:12;99849.80;;;7.16;85.71
77011;BME280;65945;53.148;17.956;2023-03-31T03:22:39;99852.73;;;7.17;85.81
77011;BME280;65945;53.148;17.956;2023-03-31T03:25:07;99850.85;;;7.18;85.68
77011;BME280;65945;53.148;17.956;2023-03-31T03:27:36;99851.58;;;7.20;86.05
77011;BME280;65945;53.148;17.956;2023-03-31T03:30:05;99854.75;;;7.23;85.88
77011;BME280;65945;53.148;17.956;2023-03-31T03:32:32;99854.70;;;7.25;85.77
77011;BME280;65945;53.148;17.956;2023-03-31T03:35:00;99853.26;;;7.27;86.04
77011;BME280;65945;53.148;17.956;2023-03-31T03:37:28;99850.04;;;7.29;86.09
77011;BME280;65945;53.148;17.956;2023-03-31T03:39:55;99848.02;;;7.32;85.84
77011;BME280;65945;53.148;17.956;2023-03-31T03:42:22;99841.80;;;7.35;85.91
77011;BME280;65945;53.148;17.956;2023-03-31T03:44:49;99846.04;;;7.38;85.81
77011;BME280;65945;53.148;17.956;2023-03-31T03:47:15;99844.77;;;7.40;85.88
77011;BME280;65945;53.148;17.956;2023-03-31T03:49:42;99848.85;;;7.41;85.89
77011;BME280;65945;53.148;17.956;2023-03-31T03:52:09;99845.96;;;7.42;85.54
77011;BME280;65945;53.148;17.956;2023-03-31T03:54:35;99844.05;;;7.41;85.71
77011;BME280;65945;53.148;17.956;2023-03-31T03:57:02;99846.77;;;7.40;85.92
77011;BME280;65945;53.148;17.956;2023-03-31T03:59:28;99843.62;;;7.38;85.69
77011;BME280;65945;53.148;17.956;2023-03-31T04:01:55;99841.84;;;7.37;85.70
77011;BME280;65945;53.148;17.956;2023-03-31T04:04:21;99840.43;;;7.35;85.58
77011;BME280;65945;53.148;17.956;2023-03-31T04:06:48;99834.16;;;7.33;85.86
77011;BME280;65945;53.148;17.956;2023-03-31T04:09:15;99831.23;;;7.31;85.55
77011;BME280;65945;53.148;17.956;2023-03-31T04:11:41;99826.30;;;7.28;85.62
77011;BME280;65945;53.148;17.956;2023-03-31T04:14:08;99826.15;;;7.25;85.86
77011;BME280;65945;53.148;17.956;2023-03-31T04:16:34;99829.30;;;7.23;86.06
77011;BME280;65945;53.148;17.956;2023-03-31T04:19:01;99827.89;;;7.22;85.86
77011;BME280;65945;53.148;17.956;2023-03-31T04:21:30;99826.87;;;7.20;85.81
77011;BME280;65945;53.148;17.956;2023-03-31T04:24:00;99828.54;;;7.19;85.60
77011;BME280;65945;53.148;17.956;2023-03-31T04:26:32;99824.98;;;7.20;85.86
77011;BME280;65945;53.148;17.956;2023-03-31T04:29:10;99820.61;;;7.22;86.05
77011;BME280;65945;53.148;17.956;2023-03-31T04:31:38;99817.17;;;7.24;85.85
77011;BME280;65945;53.148;17.956;2023-03-31T04:34:13;99816.69;;;7.27;85.93
77011;BME280;65945;53.148;17.956;2023-03-31T04:36:45;99818.92;;;7.32;86.19
77011;BME280;65945;53.148;17.956;2023-03-31T04:39:17;99817.58;;;7.36;86.12
77011;BME280;65945;53.148;17.956;2023-03-31T04:41:52;99817.66;;;7.41;86.16
77011;BME280;65945;53.148;17.956;2023-03-31T04:44:19;99813.95;;;7.45;86.00
77011;BME280;65945;53.148;17.956;2023-03-31T04:46:46;99822.94;;;7.49;85.97
77011;BME280;65945;53.148;17.956;2023-03-31T04:49:12;99819.42;;;7.52;86.28
77011;BME280;65945;53.148;17.956;2023-03-31T04:51:39;99813.56;;;7.56;86.00
77011;BME280;65945;53.148;17.956;2023-03-31T04:54:06;99811.59;;;7.60;85.95
77011;BME280;65945;53.148;17.956;2023-03-31T04:56:33;99813.88;;;7.63;85.86
77011;BME280;65945;53.148;17.956;2023-03-31T04:58:59;99809.63;;;7.68;86.03
77011;BME280;65945;53.148;17.956;2023-03-31T05:01:26;99805.00;;;7.72;86.04
77011;BME280;65945;53.148;17.956;2023-03-31T05:03:53;99808.95;;;7.76;85.92
77011;BME280;65945;53.148;17.956;2023-03-31T05:06:19;99808.15;;;7.82;85.95
77011;BME280;65945;53.148;17.956;2023-03-31T05:08:46;99802.35;;;7.85;85.89
77011;BME280;65945;53.148;17.956;2023-03-31T05:11:12;99801.59;;;7.89;85.78
77011;BME280;65945;53.148;17.956;2023-03-31T05:13:39;99797.57;;;7.93;85.86
77011;BME280;65945;53.148;17.956;2023-03-31T05:16:07;99792.86;;;7.98;85.74
77011;BME280;65945;53.148;17.956;2023-03-31T05:18:35;99788.42;;;8.02;85.65
77011;BME280;65945;53.148;17.956;2023-03-31T05:21:28;99787.52;;;8.06;85.75
77011;BME280;65945;53.148;17.956;2023-03-31T05:23:56;99780.96;;;8.10;85.67
77011;BME280;65945;53.148;17.956;2023-03-31T05:26:23;99782.48;;;8.13;85.57
77011;BME280;65945;53.148;17.956;2023-03-31T05:28:51;99781.40;;;8.17;85.57
77011;BME280;65945;53.148;17.956;2023-03-31T05:31:19;99784.52;;;8.21;85.66
77011;BME280;65945;53.148;17.956;2023-03-31T05:33:46;99783.83;;;8.25;85.56
77011;BME280;65945;53.148;17.956;2023-03-31T05:36:15;99781.95;;;8.30;85.60
77011;BME280;65945;53.148;17.956;2023-03-31T05:38:42;99783.78;;;8.35;85.41
77011;BME280;65945;53.148;17.956;2023-03-31T05:41:09;99778.62;;;8.39;85.42
77011;BME280;65945;53.148;17.956;2023-03-31T05:43:37;99780.79;;;8.47;85.43
77011;BME280;65945;53.148;17.956;2023-03-31T05:46:05;99775.02;;;8.52;85.38
77011;BME280;65945;53.148;17.956;2023-03-31T05:48:32;99773.60;;;8.60;85.19
77011;BME280;65945;53.148;17.956;2023-03-31T05:51:00;99772.34;;;8.67;85.26
77011;BME280;65945;53.148;17.956;2023-03-31T05:53:27;99777.00;;;8.74;85.07
77011;BME280;65945;53.148;17.956;2023-03-31T05:55:58;99772.68;;;8.80;85.00
77011;BME280;65945;53.148;17.956;2023-03-31T05:58:25;99770.72;;;8.86;85.00
77011;BME280;65945;53.148;17.956;2023-03-31T06:01:10;99770.03;;;8.92;84.82
77011;BME280;65945;53.148;17.956;2023-03-31T06:03:39;99768.02;;;9.00;84.88
77011;BME280;65945;53.148;17.956;2023-03-31T06:06:09;99765.79;;;9.05;84.67
77011;BME280;65945;53.148;17.956;2023-03-31T06:08:40;99762.06;;;9.10;84.60
77011;BME280;65945;53.148;17.956;2023-03-31T06:11:09;99768.25;;;9.17;84.50
77011;BME280;65945;53.148;17.956;2023-03-31T06:13:37;99767.60;;;9.26;84.27
77011;BME280;65945;53.148;17.956;2023-03-31T06:16:05;99769.27;;;9.33;84.27
77011;BME280;65945;53.148;17.956;2023-03-31T06:18:33;99770.58;;;9.39;84.17
77011;BME280;65945;53.148;17.956;2023-03-31T06:21:01;99768.67;;;9.45;84.03
77011;BME280;65945;53.148;17.956;2023-03-31T06:23:27;99764.08;;;9.51;83.96
77011;BME280;65945;53.148;17.956;2023-03-31T06:25:59;99764.32;;;9.57;83.82
77011;BME280;65945;53.148;17.956;2023-03-31T06:28:26;99762.28;;;9.66;83.83
77011;BME280;65945;53.148;17.956;2023-03-31T06:31:10;99759.94;;;9.74;83.77
77011;BME280;65945;53.148;17.956;2023-03-31T06:33:41;99759.86;;;9.82;83.47
77011;BME280;65945;53.148;17.956;2023-03-31T06:36:09;99760.10;;;9.92;83.26
77011;BME280;65945;53.148;17.956;2023-03-31T06:38:36;99756.53;;;10.01;82.98
77011;BME280;65945;53.148;17.956;2023-03-31T06:41:08;99759.36;;;10.08;82.92
77011;BME280;65945;53.148;17.956;2023-03-31T06:43:37;99759.73;;;10.15;82.83
77011;BME280;65945;53.148;17.956;2023-03-31T06:46:04;99749.87;;;10.21;82.76
77011;BME280;65945;53.148;17.956;2023-03-31T06:48:31;99751.54;;;10.28;82.60
77011;BME280;65945;53.148;17.956;2023-03-31T06:51:02;99750.99;;;10.36;82.49
77011;BME280;65945;53.148;17.956;2023-03-31T06:53:29;99749.88;;;10.41;81.78
77011;BME280;65945;53.148;17.956;2023-03-31T06:55:56;99744.58;;;10.46;81.74
77011;BME280;65945;53.148;17.956;2023-03-31T06:58:23;99750.45;;;10.54;81.92
77011;BME280;65945;53.148;17.956;2023-03-31T07:00:50;99746.77;;;10.65;81.37
77011;BME280;65945;53.148;17.956;2023-03-31T07:03:18;99748.75;;;10.73;81.20
77011;BME280;65945;53.148;17.956;2023-03-31T07:05:48;99751.10;;;10.82;81.47
77011;BME280;65945;53.148;17.956;2023-03-31T07:08:15;99751.69;;;10.93;81.02
77011;BME280;65945;53.148;17.956;2023-03-31T07:10:43;99751.76;;;11.04;80.74
77011;BME280;65945;53.148;17.956;2023-03-31T07:13:15;99755.56;;;11.15;80.57
77011;BME280;65945;53.148;17.956;2023-03-31T07:15:42;99757.59;;;11.25;80.50
77011;BME280;65945;53.148;17.956;2023-03-31T07:18:09;99761.60;;;11.32;80.11
77011;BME280;65945;53.148;17.956;2023-03-31T07:20:37;99765.82;;;11.35;80.06
77011;BME280;65945;53.148;17.956;2023-03-31T07:23:04;99761.86;;;11.37;79.58
77011;BME280;65945;53.148;17.956;2023-03-31T07:25:31;99763.00;;;11.38;79.69
77011;BME280;65945;53.148;17.956;2023-03-31T07:27:58;99760.17;;;11.39;79.43
77011;BME280;65945;53.148;17.956;2023-03-31T07:30:25;99761.17;;;11.41;79.61
77011;BME280;65945;53.148;17.956;2023-03-31T07:32:52;99755.45;;;11.42;79.26
77011;BME280;65945;53.148;17.956;2023-03-31T07:35:21;99750.79;;;11.45;79.22
77011;BME280;65945;53.148;17.956;2023-03-31T07:37:49;99752.48;;;11.49;78.99
77011;BME280;65945;53.148;17.956;2023-03-31T07:40:24;99748.90;;;11.53;78.80
77011;BME280;65945;53.148;17.956;2023-03-31T07:42:51;99749.02;;;11.61;79.27
77011;BME280;65945;53.148;17.956;2023-03-31T07:45:20;99744.86;;;11.69;78.61
77011;BME280;65945;53.148;17.956;2023-03-31T07:47:47;99743.11;;;11.75;78.39
77011;BME280;65945;53.148;17.956;2023-03-31T07:50:14;99739.44;;;11.81;78.20
77011;BME280;65945;53.148;17.956;2023-03-31T07:52:42;99742.21;;;11.89;78.25
77011;BME280;65945;53.148;17.956;2023-03-31T07:55:10;99737.25;;;11.93;76.56
77011;BME280;65945;53.148;17.956;2023-03-31T07:57:37;99733.64;;;11.90;77.07
77011;BME280;65945;53.148;17.956;2023-03-31T08:00:05;99729.66;;;11.94;77.42
77011;BME280;65945;53.148;17.956;2023-03-31T08:02:40;99725.85;;;12.00;77.46
77011;BME280;65945;53.148;17.956;2023-03-31T08:05:12;99716.96;;;12.10;77.31
77011;BME280;65945;53.148;17.956;2023-03-31T08:07:42;99710.08;;;12.24;77.43
77011;BME280;65945;53.148;17.956;2023-03-31T08:10:12;99706.15;;;12.41;77.33
77011;BME280;65945;53.148;17.956;2023-03-31T08:12:39;99700.45;;;12.57;76.92
77011;BME280;65945;53.148;17.956;2023-03-31T08:15:07;99702.20;;;12.70;76.38
77011;BME280;65945;53.148;17.956;2023-03-31T08:17:34;99701.81;;;12.78;75.31
77011;BME280;65945;53.148;17.956;2023-03-31T08:20:02;99697.35;;;12.84;75.51
77011;BME280;65945;53.148;17.956;2023-03-31T08:22:32;99697.31;;;12.92;74.67
77011;BME280;65945;53.148;17.956;2023-03-31T08:24:58;99700.92;;;12.92;73.99
77011;BME280;65945;53.148;17.956;2023-03-31T08:27:25;99693.10;;;12.90;74.56
77011;BME280;65945;53.148;17.956;2023-03-31T08:29:52;99687.58;;;12.95;75.01
77011;BME280;65945;53.148;17.956;2023-03-31T08:32:21;99683.11;;;13.04;74.77
77011;BME280;65945;53.148;17.956;2023-03-31T08:34:48;99680.15;;;13.12;74.68
77011;BME280;65945;53.148;17.956;2023-03-31T08:37:17;99682.34;;;13.23;74.64
77011;BME280;65945;53.148;17.956;2023-03-31T08:39:44;99688.67;;;13.32;74.08
77011;BME280;65945;53.148;17.956;2023-03-31T08:47:47;99689.66;;;13.35;73.21
77011;BME280;65945;53.148;17.956;2023-03-31T08:50:18;99685.37;;;13.33;72.24
77011;BME280;65945;53.148;17.956;2023-03-31T08:55:28;99682.77;;;13.16;72.28
77011;BME280;65945;53.148;17.956;2023-03-31T08:58:10;99682.53;;;13.18;73.45
77011;BME280;65945;53.148;17.956;2023-03-31T09:00:50;99679.48;;;13.28;73.06
77011;BME280;65945;53.148;17.956;2023-03-31T09:03:30;99682.75;;;13.33;72.72
77011;BME280;65945;53.148;17.956;2023-03-31T09:06:04;99683.71;;;13.40;72.25
77011;BME280;65945;53.148;17.956;2023-03-31T09:08:36;99680.94;;;13.44;72.57
77011;BME280;65945;53.148;17.956;2023-03-31T09:14:14;99663.38;;;13.65;72.70
77011;BME280;65945;53.148;17.956;2023-03-31T09:22:29;99672.20;;;13.88;70.44
77011;BME280;65945;53.148;17.956;2023-03-31T09:27:42;99665.09;;;13.93;70.13
77011;BME280;65945;53.148;17.956;2023-03-31T09:30:24;99664.65;;;13.90;70.08
77011;BME280;65945;53.148;17.956;2023-03-31T09:33:05;99664.19;;;13.91;70.53
77011;BME280;65945;53.148;17.956;2023-03-31T09:35:35;99660.86;;;13.94;70.01
77011;BME280;65945;53.148;17.956;2023-03-31T09:38:02;99658.58;;;14.02;70.24
77011;BME280;65945;53.148;17.956;2023-03-31T09:40:29;99653.23;;;14.15;70.28
77011;BME280;65945;53.148;17.956;2023-03-31T09:42:59;99648.10;;;14.32;70.68
77011;BME280;65945;53.148;17.956;2023-03-31T09:45:27;99645.95;;;14.50;70.23
77011;BME280;65945;53.148;17.956;2023-03-31T09:47:58;99648.70;;;14.64;69.72
77011;BME280;65945;53.148;17.956;2023-03-31T09:50:28;99649.98;;;14.73;68.68
77011;BME280;65945;53.148;17.956;2023-03-31T09:52:58;99643.75;;;14.80;68.81
77011;BME280;65945;53.148;17.956;2023-03-31T09:55:50;99643.23;;;14.85;68.51
77011;BME280;65945;53.148;17.956;2023-03-31T09:58:17;99641.37;;;14.81;66.97
77011;BME280;65945;53.148;17.956;2023-03-31T10:01:04;99638.33;;;14.77;68.25
77011;BME280;65945;53.148;17.956;2023-03-31T10:03:31;99636.33;;;14.83;67.15
77011;BME280;65945;53.148;17.956;2023-03-31T10:06:08;99635.55;;;14.90;67.54
77011;BME280;65945;53.148;17.956;2023-03-31T10:08:42;99636.06;;;14.99;66.87
77011;BME280;65945;53.148;17.956;2023-03-31T10:11:13;99633.53;;;15.04;66.55
77011;BME280;65945;53.148;17.956;2023-03-31T10:13:54;99629.66;;;15.06;66.68
77011;BME280;65945;53.148;17.956;2023-03-31T10:18:58;99623.89;;;15.12;66.67
77011;BME280;65945;53.148;17.956;2023-03-31T10:21:36;99619.19;;;15.18;65.69
77011;BME280;65945;53.148;17.956;2023-03-31T10:24:08;99610.94;;;15.14;65.57
77011;BME280;65945;53.148;17.956;2023-03-31T10:26:36;99607.14;;;15.16;66.20
77011;BME280;65945;53.148;17.956;2023-03-31T10:29:11;99604.08;;;15.25;66.54
77011;BME280;65945;53.148;17.956;2023-03-31T10:31:38;99601.45;;;15.38;66.37
77011;BME280;65945;53.148;17.956;2023-03-31T10:34:07;99601.38;;;15.50;66.38
77011;BME280;65945;53.148;17.956;2023-03-31T10:36:47;99601.98;;;15.56;65.82
77011;BME280;65945;53.148;17.956;2023-03-31T10:39:15;99596.23;;;15.53;64.06
77011;BME280;65945;53.148;17.956;2023-03-31T10:41:42;99601.75;;;15.38;64.76
77011;BME280;65945;53.148;17.956;2023-03-31T10:47:03;99597.73;;;15.28;66.09
77011;BME280;65945;53.148;17.956;2023-03-31T10:49:36;99596.95;;;15.28;65.85
77011;BME280;65945;53.148;17.956;2023-03-31T10:52:24;99594.05;;;15.26;64.86
77011;BME280;65945;53.148;17.956;2023-03-31T10:54:57;99590.54;;;15.30;65.70
77011;BME280;65945;53.148;17.956;2023-03-31T11:03:00;99584.86;;;15.52;64.26
77011;BME280;65945;53.148;17.956;2023-03-31T11:05:38;99588.11;;;15.56;64.31
77011;BME280;65945;53.148;17.956;2023-03-31T11:11:07;99576.23;;;15.71;63.83
77011;BME280;65945;53.148;17.956;2023-03-31T11:16:32;99572.29;;;15.77;62.41
77011;BME280;65945;53.148;17.956;2023-03-31T11:38:00;99539.41;;;16.14;60.65
77011;BME280;65945;53.148;17.956;2023-03-31T11:45:37;99520.21;;;16.22;60.67
77011;BME280;65945;53.148;17.956;2023-03-31T11:48:11;99516.63;;;16.24;60.97
77011;BME280;65945;53.148;17.956;2023-03-31T11:50:43;99511.20;;;16.30;61.09
77011;BME280;65945;53.148;17.956;2023-03-31T11:53:31;99506.20;;;16.33;60.87
77011;BME280;65945;53.148;17.956;2023-03-31T11:56:00;99503.75;;;16.35;60.75
77011;BME280;65945;53.148;17.956;2023-03-31T11:58:39;99501.90;;;16.35;61.13
77011;BME280;65945;53.148;17.956;2023-03-31T12:01:16;99496.15;;;16.33;60.17
77011;BME280;65945;53.148;17.956;2023-03-31T12:03:58;99491.34;;;16.28;60.23
77011;BME280;65945;53.148;17.956;2023-03-31T12:06:30;99493.00;;;16.29;60.36
77011;BME280;65945;53.148;17.956;2023-03-31T12:09:01;99487.73;;;16.27;58.82
77011;BME280;65945;53.148;17.956;2023-03-31T12:11:37;99485.60;;;16.22;59.99
77011;BME280;65945;53.148;17.956;2023-03-31T12:14:41;99486.69;;;16.29;60.30
77011;BME280;65945;53.148;17.956;2023-03-31T12:17:12;99480.40;;;16.42;58.57
77011;BME280;65945;53.148;17.956;2023-03-31T12:19:53;99478.73;;;16.44;59.08
77011;BME280;65945;53.148;17.956;2023-03-31T12:22:31;99477.44;;;16.50;59.32
77011;BME280;65945;53.148;17.956;2023-03-31T12:25:03;99472.97;;;16.53;58.84
77011;BME280;65945;53.148;17.956;2023-03-31T12:27:48;99471.70;;;16.50;58.67
77011;BME280;65945;53.148;17.956;2023-03-31T12:30:33;99471.66;;;16.43;58.73
77011;BME280;65945;53.148;17.956;2023-03-31T12:33:23;99470.19;;;16.40;58.96
77011;BME280;65945;53.148;17.956;2023-03-31T12:38:41;99459.95;;;16.28;58.45
77011;BME280;65945;53.148;17.956;2023-03-31T12:41:21;99460.98;;;16.27;58.68
77011;BME280;65945;53.148;17.956;2023-03-31T12:44:03;99456.48;;;16.31;58.42
77011;BME280;65945;53.148;17.956;2023-03-31T12:46:45;99457.04;;;16.39;58.85
77011;BME280;65945;53.148;17.956;2023-03-31T12:49:47;99452.32;;;16.47;58.40
77011;BME280;65945;53.148;17.956;2023-03-31T12:57:47;99445.96;;;16.70;58.34
77011;BME280;65945;53.148;17.956;2023-03-31T13:00:25;99440.63;;;16.75;57.33
77011;BME280;65945;53.148;17.956;2023-03-31T13:05:59;99434.32;;;16.56;56.91
77011;BME280;65945;53.148;17.956;2023-03-31T13:08:49;99428.39;;;16.49;56.12
77011;BME280;65945;53.148;17.956;2023-03-31T13:11:19;99426.20;;;16.38;57.35
77011;BME280;65945;53.148;17.956;2023-03-31T13:14:03;99423.14;;;16.33;57.51
77011;BME280;65945;53.148;17.956;2023-03-31T13:16:33;99417.58;;;16.34;58.00
77011;BME280;65945;53.148;17.956;2023-03-31T13:19:00;99415.90;;;16.37;57.71
77011;BME280;65945;53.148;17.956;2023-03-31T13:21:27;99414.02;;;16.34;57.87
77011;BME280;65945;53.148;17.956;2023-03-31T13:23:59;99408.17;;;16.34;57.39
77011;BME280;65945;53.148;17.956;2023-03-31T13:34:45;99391.18;;;16.28;56.90
77011;BME280;65945;53.148;17.956;2023-03-31T13:40:24;99378.29;;;16.11;57.12
77011;BME280;65945;53.148;17.956;2023-03-31T13:45:53;99366.23;;;15.86;58.17
77011;BME280;65945;53.148;17.956;2023-03-31T13:48:53;99363.63;;;15.90;58.73
77011;BME280;65945;53.148;17.956;2023-03-31T14:00:10;99354.64;;;16.38;58.44
77011;BME280;65945;53.148;17.956;2023-03-31T14:03:05;99349.85;;;16.50;57.56
77011;BME280;65945;53.148;17.956;2023-03-31T14:05:52;99342.52;;;16.50;56.34
77011;BME280;65945;53.148;17.956;2023-03-31T14:08:51;99340.20;;;16.47;57.33
77011;BME280;65945;53.148;17.956;2023-03-31T14:11:25;99336.65;;;16.54;57.73
77011;BME280;65945;53.148;17.956;2023-03-31T14:14:12;99331.61;;;16.58;56.91
77011;BME280;65945;53.148;17.956;2023-03-31T14:16:57;99325.73;;;16.59;57.19
77011;BME280;65945;53.148;17.956;2023-03-31T14:19:56;99322.56;;;16.62;57.40
77011;BME280;65945;53.148;17.956;2023-03-31T14:22:39;99321.09;;;16.72;57.05
77011;BME280;65945;53.148;17.956;2023-03-31T14:30:52;99319.13;;;16.74;56.37
77011;BME280;65945;53.148;17.956;2023-03-31T14:33:36;99312.63;;;16.74;56.44
77011;BME280;65945;53.148;17.956;2023-03-31T14:36:34;99308.17;;;16.76;56.09
77011;BME280;65945;53.148;17.956;2023-03-31T14:39:07;99302.59;;;16.75;56.16
77011;BME280;65945;53.148;17.956;2023-03-31T14:41:35;99300.00;;;16.73;56.56
77011;BME280;65945;53.148;17.956;2023-03-31T14:44:11;99296.88;;;16.72;56.60
77011;BME280;65945;53.148;17.956;2023-03-31T14:46:39;99294.84;;;16.70;56.58
77011;BME280;65945;53.148;17.956;2023-03-31T14:49:36;99288.61;;;16.62;56.44
77011;BME280;65945;53.148;17.956;2023-03-31T14:52:14;99288.41;;;16.48;56.69
77011;BME280;65945;53.148;17.956;2023-03-31T14:54:46;99282.41;;;16.27;56.49
77011;BME280;65945;53.148;17.956;2023-03-31T14:57:16;99286.27;;;16.03;57.04
77011;BME280;65945;53.148;17.956;2023-03-31T14:59:45;99293.86;;;15.73;58.98
77011;BME280;65945;53.148;17.956;2023-03-31T15:02:16;99291.27;;;15.41;60.94
77011;BME280;65945;53.148;17.956;2023-03-31T15:04:46;99292.52;;;15.07;62.62
77011;BME280;65945;53.148;17.956;2023-03-31T15:07:15;99288.96;;;14.82;63.34
77011;BME280;65945;53.148;17.956;2023-03-31T15:09:47;99285.14;;;14.64;64.67
77011;BME280;65945;53.148;17.956;2023-03-31T15:12:17;99284.28;;;14.44;65.23
77011;BME280;65945;53.148;17.956;2023-03-31T15:14:50;99279.98;;;14.29;65.49
77011;BME280;65945;53.148;17.956;2023-03-31T15:17:22;99279.79;;;14.20;65.55
77011;BME280;65945;53.148;17.956;2023-03-31T15:19:54;99275.67;;;14.13;65.96
77011;BME280;65945;53.148;17.956;2023-03-31T15:22:24;99275.63;;;14.04;66.62
77011;BME280;65945;53.148;17.956;2023-03-31T15:24:53;99276.69;;;13.95;66.35
77011;BME280;65945;53.148;17.956;2023-03-31T15:30:04;99278.42;;;13.92;66.87
77011;BME280;65945;53.148;17.956;2023-03-31T15:32:37;99275.59;;;13.91;67.00
77011;BME280;65945;53.148;17.956;2023-03-31T15:35:05;99277.67;;;13.91;67.22
77011;BME280;65945;53.148;17.956;2023-03-31T15:37:39;99277.94;;;13.89;67.42